Ice Star — OUJK2 — position and weather

sailwx.info

Track history (hours):
 
Tides and Currents Weather Stations Pressure Air Temp Water Temp Dewpoint Dewpoint Depression Visibility Wind Speed Wind Dir Waves Ship Positions

Ice Star

Last reported at 2016-May-18 21:29 UTC. Time now 2016-May-27 04:38 UTC.
Position N 02°31' E 101°34'.
Warning: this ship's position is 8 days out of date.

Length 367 m; draft 13.3 m.

Type: Ship. MMSI: 220596000.

Date/timePositionNaut miles runAvg speedWind from/ knotsBaromVisibWave heightAir tempDewpointWater temp
2016-May-18 21:29N 02°31' E 101°34'1616.2
2016-May-18 20:28N 02°21' E 101°47'3317.1
2016-May-18 18:31N 01°59' E 102°13'1717.8
2016-May-18 17:33N 01°51' E 102°27'1818.1
2016-May-18 16:33N 01°43' E 102°44'1917.4
2016-May-18 15:28N 01°33' E 102°60'3616.3
2016-May-18 13:17N 01°13' E 103°29'1014.1
2016-May-18 12:34N 01°12' E 103°39'8 7.7
2016-May-18 11:33N 01°16' E 103°46'0 0.1
2016-May-18 10:28N 01°16' E 103°46'0 0.0
2016-May-18 09:31N 01°16' E 103°46'0 0.0
2016-May-18 08:31N 01°16' E 103°46'0 0.0
2016-May-18 07:32N 01°16' E 103°46'0 0.0
2016-May-18 06:17N 01°16' E 103°46'0 0.0
2016-May-18 05:29N 01°16' E 103°46'0 0.0
2016-May-18 04:26N 01°16' E 103°46'0 0.0
2016-May-18 03:20N 01°16' E 103°46'0 0.0
2016-May-18 02:05N 01°16' E 103°46'0 0.1
2016-May-18 01:32N 01°16' E 103°46'0 0.1
2016-May-18 00:20N 01°16' E 103°46'0 0.2
2016-May-17 23:33N 01°16' E 103°45'6 5.8
2016-May-17 22:33N 01°12' E 103°50'1212.2
2016-May-17 21:32N 01°16' E 104°02'  
2016-May-14 22:28N 22°01' E 114°20'2512.8
2016-May-14 20:32N 22°21' E 114°04'1010.1
2016-May-14 19:32N 22°23' E 113°54'4 4.6
2016-May-14 18:33N 22°27' E 113°53'0 0.2
2016-May-14 17:29N 22°27' E 113°53'0 0.0
2016-May-14 16:29N 22°27' E 113°53'0 0.0
2016-May-14 15:05N 22°27' E 113°53'0 0.0
2016-May-14 14:29N 22°27' E 113°53'0 0.0
2016-May-14 13:29N 22°27' E 113°53'0 0.0
2016-May-14 12:29N 22°27' E 113°53'0 0.0
2016-May-14 11:23N 22°28' E 113°53'0 0.0
2016-May-14 10:23N 22°28' E 113°53'0 0.0
2016-May-14 09:23N 22°28' E 113°53'0 0.0
2016-May-14 08:29N 22°27' E 113°53'0 0.0
2016-May-14 07:29N 22°28' E 113°53'0 0.0
2016-May-14 06:29N 22°27' E 113°53'0 0.0
2016-May-14 05:29N 22°28' E 113°53'0 0.0
2016-May-14 04:33N 22°27' E 113°53'1 0.9
2016-May-14 03:33N 22°27' E 113°53'15 7.4
2016-May-14 01:33N 22°18' E 114°06'12 8.5
2016-May-14 00:07N 22°08' E 114°14'814.0
2016-May-13 23:33N 22°08' E 114°22'29819.8
2016-May-13 08:34N 24°26' E 119°09'2421.2
2016-May-13 07:25N 24°43' E 119°28'29419.7
2016-May-12 16:32N 28°47' E 122°31'1919.6
2016-May-12 15:33N 29°06' E 122°32'2220.1
2016-May-12 14:28N 29°28' E 122°32'1516.1
2016-May-12 13:34N 29°42' E 122°26'1313.2
2016-May-12 12:33N 29°49' E 122°13'1010.3
2016-May-12 11:34N 29°54' E 122°03'0 0.4
2016-May-12 10:32N 29°53' E 122°03'0 0.0
2016-May-12 09:29N 29°53' E 122°03'0 0.0
2016-May-12 08:32N 29°53' E 122°03'0 0.0
2016-May-12 06:08N 29°53' E 122°03'0 0.0
2016-May-12 05:29N 29°53' E 122°03'0 0.0
2016-May-12 04:32N 29°53' E 122°03'0 0.0
2016-May-12 02:17N 29°53' E 122°03'0 0.0
2016-May-12 00:32N 29°53' E 122°03'0 0.0
2016-May-11 22:26N 29°53' E 122°03'0 0.0
2016-May-11 21:26N 29°53' E 122°03'0 0.0
2016-May-11 20:32N 29°53' E 122°03'2 1.6
2016-May-11 19:33N 29°54' E 122°04'5 5.3
2016-May-11 18:33N 29°54' E 122°10'1111.2
2016-May-11 17:33N 29°46' E 122°19'8 7.4
2016-May-11 16:30N 29°45' E 122°28'6 6.6
2016-May-11 15:31N 29°47' E 122°35'7 6.9
2016-May-11 14:32N 29°51' E 122°41'8 7.5
2016-May-11 13:30N 29°56' E 122°48'8 7.9
2016-May-11 12:31N 30°01' E 122°54'8 7.5
2016-May-11 11:29N 30°07' E 122°60'7 7.4
2016-May-11 10:33N 30°14' E 122°59'9 8.0
2016-May-11 09:27N 30°22' E 122°55'8 8.5
2016-May-11 08:30N 30°27' E 122°47'8 8.2
2016-May-11 07:33N 30°29' E 122°39'8 6.9
2016-May-11 06:20N 30°31' E 122°29'9 5.1
2016-May-11 04:32N 30°33' E 122°19'7 7.1
2016-May-11 03:31N 30°34' E 122°11'7 6.7
2016-May-11 02:28N 30°37' E 122°03'0 0.0
2016-May-11 01:33N 30°37' E 122°03'0 0.0
2016-May-11 00:31N 30°37' E 122°03'0 0.0
2016-May-10 23:23N 30°37' E 122°03'0 0.0
2016-May-10 22:33N 30°37' E 122°03'0 0.0
2016-May-10 21:33N 30°37' E 122°03'0 0.0
2016-May-10 20:26N 30°37' E 122°03'0 0.0
2016-May-10 19:31N 30°37' E 122°03'0 0.0
2016-May-10 18:32N 30°37' E 122°03'0 0.0
2016-May-10 17:22N 30°37' E 122°03'0 0.0
2016-May-10 16:33N 30°37' E 122°03'0 0.2
2016-May-10 15:33N 30°37' E 122°03'11 8.4
2016-May-10 14:15N 30°34' E 122°15'4 5.0
2016-May-10 13:27N 30°33' E 122°20'14 7.1
2016-May-10 11:30N 30°30' E 122°35'8 7.8
2016-May-10 10:30N 30°29' E 122°44'7 7.0
2016-May-10 09:33N 30°29' E 122°52'7 6.7
2016-May-10 08:26N 30°26' E 123°00'2 2.4
2016-May-10 07:25N 30°29' E 122°60'2 1.9
2016-May-10 06:33N 30°30' E 122°59'1 1.3
2016-May-10 05:28N 30°32' E 122°59'1 1.0
2016-May-10 04:20N 30°33' E 122°59'1 1.0
2016-May-10 03:23N 30°33' E 122°58'0 0.4
2016-May-10 02:33N 30°33' E 122°58'1 1.4
2016-May-10 01:33N 30°34' E 122°58'4 4.2
2016-May-10 00:31N 30°36' E 123°03'  
Track history (hours):
 
Tides and Currents Weather Stations Pressure Air Temp Water Temp Dewpoint Dewpoint Depression Visibility Wind Speed Wind Dir Waves Ship Positions

Ice Star

Last reported at 2016-May-18 21:29 UTC. Time now 2016-May-27 04:38 UTC.
Position N 02°31' E 101°34'.
Warning: this ship's position is 8 days out of date.

Length 367 m; draft 13.3 m.

Type: Ship. MMSI: 220596000.

Date/timePositionNaut miles runAvg speedWind from/ knotsBaromVisibWave heightAir tempDewpointWater temp
2016-May-18 21:29N 02°31' E 101°34'1616.2
2016-May-18 20:28N 02°21' E 101°47'3317.1
2016-May-18 18:31N 01°59' E 102°13'1717.8
2016-May-18 17:33N 01°51' E 102°27'1818.1
2016-May-18 16:33N 01°43' E 102°44'1917.4
2016-May-18 15:28N 01°33' E 102°60'3616.3
2016-May-18 13:17N 01°13' E 103°29'1014.1
2016-May-18 12:34N 01°12' E 103°39'8 7.7
2016-May-18 11:33N 01°16' E 103°46'0 0.1
2016-May-18 10:28N 01°16' E 103°46'0 0.0
2016-May-18 09:31N 01°16' E 103°46'0 0.0
2016-May-18 08:31N 01°16' E 103°46'0 0.0
2016-May-18 07:32N 01°16' E 103°46'0 0.0
2016-May-18 06:17N 01°16' E 103°46'0 0.0
2016-May-18 05:29N 01°16' E 103°46'0 0.0
2016-May-18 04:26N 01°16' E 103°46'0 0.0
2016-May-18 03:20N 01°16' E 103°46'0 0.0
2016-May-18 02:05N 01°16' E 103°46'0 0.1
2016-May-18 01:32N 01°16' E 103°46'0 0.1
2016-May-18 00:20N 01°16' E 103°46'0 0.2
2016-May-17 23:33N 01°16' E 103°45'6 5.8
2016-May-17 22:33N 01°12' E 103°50'1212.2
2016-May-17 21:32N 01°16' E 104°02'  
2016-May-14 22:28N 22°01' E 114°20'2512.8
2016-May-14 20:32N 22°21' E 114°04'1010.1
2016-May-14 19:32N 22°23' E 113°54'4 4.6
2016-May-14 18:33N 22°27' E 113°53'0 0.2
2016-May-14 17:29N 22°27' E 113°53'0 0.0
2016-May-14 16:29N 22°27' E 113°53'0 0.0
2016-May-14 15:05N 22°27' E 113°53'0 0.0
2016-May-14 14:29N 22°27' E 113°53'0 0.0
2016-May-14 13:29N 22°27' E 113°53'0 0.0
2016-May-14 12:29N 22°27' E 113°53'0 0.0
2016-May-14 11:23N 22°28' E 113°53'0 0.0
2016-May-14 10:23N 22°28' E 113°53'0 0.0
2016-May-14 09:23N 22°28' E 113°53'0 0.0
2016-May-14 08:29N 22°27' E 113°53'0 0.0
2016-May-14 07:29N 22°28' E 113°53'0 0.0
2016-May-14 06:29N 22°27' E 113°53'0 0.0
2016-May-14 05:29N 22°28' E 113°53'0 0.0
2016-May-14 04:33N 22°27' E 113°53'1 0.9
2016-May-14 03:33N 22°27' E 113°53'15 7.4
2016-May-14 01:33N 22°18' E 114°06'12 8.5
2016-May-14 00:07N 22°08' E 114°14'814.0
2016-May-13 23:33N 22°08' E 114°22'29819.8
2016-May-13 08:34N 24°26' E 119°09'2421.2
2016-May-13 07:25N 24°43' E 119°28'29419.7
2016-May-12 16:32N 28°47' E 122°31'1919.6
2016-May-12 15:33N 29°06' E 122°32'2220.1
2016-May-12 14:28N 29°28' E 122°32'1516.1
2016-May-12 13:34N 29°42' E 122°26'1313.2
2016-May-12 12:33N 29°49' E 122°13'1010.3
2016-May-12 11:34N 29°54' E 122°03'0 0.4
2016-May-12 10:32N 29°53' E 122°03'0 0.0
2016-May-12 09:29N 29°53' E 122°03'0 0.0
2016-May-12 08:32N 29°53' E 122°03'0 0.0
2016-May-12 06:08N 29°53' E 122°03'0 0.0
2016-May-12 05:29N 29°53' E 122°03'0 0.0
2016-May-12 04:32N 29°53' E 122°03'0 0.0
2016-May-12 02:17N 29°53' E 122°03'0 0.0
2016-May-12 00:32N 29°53' E 122°03'0 0.0
2016-May-11 22:26N 29°53' E 122°03'0 0.0
2016-May-11 21:26N 29°53' E 122°03'0 0.0
2016-May-11 20:32N 29°53' E 122°03'2 1.6
2016-May-11 19:33N 29°54' E 122°04'5 5.3
2016-May-11 18:33N 29°54' E 122°10'1111.2
2016-May-11 17:33N 29°46' E 122°19'8 7.4
2016-May-11 16:30N 29°45' E 122°28'6 6.6
2016-May-11 15:31N 29°47' E 122°35'7 6.9
2016-May-11 14:32N 29°51' E 122°41'8 7.5
2016-May-11 13:30N 29°56' E 122°48'8 7.9
2016-May-11 12:31N 30°01' E 122°54'8 7.5
2016-May-11 11:29N 30°07' E 122°60'7 7.4
2016-May-11 10:33N 30°14' E 122°59'9 8.0
2016-May-11 09:27N 30°22' E 122°55'8 8.5
2016-May-11 08:30N 30°27' E 122°47'8 8.2
2016-May-11 07:33N 30°29' E 122°39'8 6.9
2016-May-11 06:20N 30°31' E 122°29'9 5.1
2016-May-11 04:32N 30°33' E 122°19'7 7.1
2016-May-11 03:31N 30°34' E 122°11'7 6.7
2016-May-11 02:28N 30°37' E 122°03'0 0.0
2016-May-11 01:33N 30°37' E 122°03'0 0.0
2016-May-11 00:31N 30°37' E 122°03'0 0.0
2016-May-10 23:23N 30°37' E 122°03'0 0.0
2016-May-10 22:33N 30°37' E 122°03'0 0.0
2016-May-10 21:33N 30°37' E 122°03'0 0.0
2016-May-10 20:26N 30°37' E 122°03'0 0.0
2016-May-10 19:31N 30°37' E 122°03'0 0.0
2016-May-10 18:32N 30°37' E 122°03'0 0.0
2016-May-10 17:22N 30°37' E 122°03'0 0.0
2016-May-10 16:33N 30°37' E 122°03'0 0.2
2016-May-10 15:33N 30°37' E 122°03'11 8.4
2016-May-10 14:15N 30°34' E 122°15'4 5.0
2016-May-10 13:27N 30°33' E 122°20'14 7.1
2016-May-10 11:30N 30°30' E 122°35'8 7.8
2016-May-10 10:30N 30°29' E 122°44'7 7.0
2016-May-10 09:33N 30°29' E 122°52'7 6.7
2016-May-10 08:26N 30°26' E 123°00'2 2.4
2016-May-10 07:25N 30°29' E 122°60'2 1.9
2016-May-10 06:33N 30°30' E 122°59'1 1.3
2016-May-10 05:28N 30°32' E 122°59'1 1.0
2016-May-10 04:20N 30°33' E 122°59'1 1.0
2016-May-10 03:23N 30°33' E 122°58'0 0.4
2016-May-10 02:33N 30°33' E 122°58'1 1.4
2016-May-10 01:33N 30°34' E 122°58'4 4.2
2016-May-10 00:31N 30°36' E 123°03'  

Dump ship's entire track history